Time;durP1;ratioP1;P1;durP2;ratioP2;P2;SDS_P1;SDS_P2;PMS_P1;PMS_P2;Temp;Humidity;BMP_temperature;BMP_pressure;BME280_temperature;BME280_humidity;BME280_pressure;Samples;Min_cycle;Max_cycle;Signal;HPM_P1;HPM_P2
2022/11/22 00:01:04;;;;;;;8.88;1.35;;;;;;;15.53;100.00;101121.22;2100733;28;20040;-74
2022/11/22 00:02:26;;;;;;;4.70;0.90;;;;;;;15.52;100.00;101124.75;2088613;28;20048;-74
2022/11/22 00:03:49;;;;;;;6.20;1.38;;;;;;;15.49;100.00;101127.41;2100808;28;20052;-74
2022/11/22 00:05:12;;;;;;;5.13;1.00;;;;;;;15.49;100.00;101132.75;2105710;28;20377;-74
2022/11/22 00:06:34;;;;;;;8.45;1.80;;;;;;;15.48;100.00;101136.28;2096466;28;20417;-74
2022/11/22 00:07:58;;;;;;;12.55;2.20;;;;;;;15.48;100.00;101141.59;2091964;28;20093;-74
2022/11/22 00:09:20;;;;;;;6.75;1.20;;;;;;;15.42;100.00;101142.47;2100416;28;20055;-74
2022/11/22 00:10:43;;;;;;;5.32;1.42;;;;;;;15.36;100.00;101138.94;2102702;28;20137;-74
2022/11/22 00:12:06;;;;;;;10.82;2.30;;;;;;;15.35;100.00;101134.47;2103004;28;20052;-74
2022/11/22 00:13:28;;;;;;;7.35;1.50;;;;;;;15.37;100.00;101141.56;2111279;28;20048;-74
2022/11/22 00:14:49;;;;;;;7.40;1.33;;;;;;;15.42;100.00;101133.63;2112521;28;20051;-74
2022/11/22 00:16:12;;;;;;;7.07;1.08;;;;;;;15.43;100.00;101125.59;2111236;28;20075;-75
2022/11/22 00:17:34;;;;;;;10.60;1.35;;;;;;;15.47;100.00;101126.50;2105570;28;20055;-75
2022/11/22 00:18:57;;;;;;;8.98;1.95;;;;;;;15.49;100.00;101130.09;2105039;28;20109;-76
2022/11/22 00:20:19;;;;;;;8.63;1.20;;;;;;;15.48;100.00;101129.19;2094316;28;20048;-75
2022/11/22 00:21:42;;;;;;;10.45;1.40;;;;;;;15.49;100.00;101133.59;2094688;28;20186;-74
2022/11/22 00:23:04;;;;;;;9.05;1.70;;;;;;;15.49;100.00;101130.94;2093677;28;20500;-74
2022/11/22 00:24:27;;;;;;;6.95;1.00;;;;;;;15.50;100.00;101131.81;2102761;28;20100;-74
2022/11/22 00:25:48;;;;;;;10.80;1.92;;;;;;;15.51;100.00;101133.59;2102986;28;20479;-74
2022/11/22 00:27:11;;;;;;;8.57;1.48;;;;;;;15.51;100.00;101130.94;2102284;28;20094;-74
2022/11/22 00:28:33;;;;;;;12.70;2.10;;;;;;;15.50;100.00;101129.16;2094437;28;20090;-74
2022/11/22 00:29:55;;;;;;;8.63;1.60;;;;;;;15.49;100.00;101130.09;2086172;28;20476;-74
2022/11/22 00:31:18;;;;;;;8.68;1.40;;;;;;;15.48;100.00;101120.31;2098001;28;20524;-75
2022/11/22 00:32:40;;;;;;;7.78;1.83;;;;;;;15.46;100.00;101122.06;2086023;28;20569;-74
2022/11/22 00:34:03;;;;;;;6.10;1.90;;;;;;;15.44;100.00;101110.53;2091509;28;20702;-75
2022/11/22 00:35:24;;;;;;;8.75;1.70;;;;;;;15.42;100.00;101102.56;2091102;28;20044;-75
2022/11/22 00:36:47;;;;;;;7.35;1.50;;;;;;;15.40;100.00;101090.16;2099787;28;20130;-74
2022/11/22 00:38:11;;;;;;;7.15;1.23;;;;;;;15.39;100.00;101088.38;2102644;28;20032;-74
2022/11/22 00:39:32;;;;;;;8.27;2.00;;;;;;;15.36;100.00;101080.41;2105130;28;20044;-75
2022/11/22 00:40:55;;;;;;;12.00;1.85;;;;;;;15.32;100.00;101079.50;2093674;28;20048;-75
2022/11/22 00:42:17;;;;;;;6.38;1.40;;;;;;;15.31;100.00;101088.34;2086183;28;20115;-75
2022/11/22 00:43:40;;;;;;;5.80;1.10;;;;;;;15.31;100.00;101085.69;2094179;28;20086;-75
2022/11/22 00:45:01;;;;;;;8.93;1.50;;;;;;;15.30;100.00;101086.56;2094462;28;20102;-74
2022/11/22 00:46:24;;;;;;;10.38;1.67;;;;;;;15.31;100.00;101088.34;2099743;28;20051;-74
2022/11/22 00:47:46;;;;;;;5.75;0.90;;;;;;;15.22;100.00;101092.78;2110930;28;20480;-75
2022/11/22 00:49:09;;;;;;;6.60;1.20;;;;;;;15.13;100.00;101098.97;2105262;28;20092;-75
2022/11/22 00:50:31;;;;;;;10.30;1.55;;;;;;;15.08;100.00;101103.38;2096949;28;20085;-75
2022/11/22 00:51:53;;;;;;;7.78;1.55;;;;;;;15.10;100.00;101106.91;2100084;28;20442;-75
2022/11/22 00:53:17;;;;;;;7.78;1.52;;;;;;;15.10;100.00;101106.91;2103849;28;20507;-75
2022/11/22 00:54:40;;;;;;;7.03;1.10;;;;;;;15.10;100.00;101109.56;2102291;28;20113;-74
2022/11/22 00:56:01;;;;;;;6.63;1.58;;;;;;;15.10;100.00;101110.47;2111291;28;20162;-75
2022/11/22 00:57:24;;;;;;;9.25;1.35;;;;;;;15.10;100.00;101109.56;2102635;28;20508;-75
2022/11/22 00:58:45;;;;;;;11.65;1.70;;;;;;;15.09;100.00;101108.72;2099952;28;20115;-75
2022/11/22 01:00:09;;;;;;;7.82;1.70;;;;;;;15.09;100.00;101113.16;2094312;28;20071;-75
2022/11/22 01:01:30;;;;;;;5.57;1.20;;;;;;;15.08;100.00;101108.72;2102670;28;20032;-75
2022/11/22 01:19:02;;;;;;;9.25;1.50;;;;;;;15.02;100.00;101090.97;2104968;28;20059;-74
2022/11/22 01:20:24;;;;;;;8.65;2.17;;;;;;;15.01;100.00;101089.19;2095103;28;20036;-75
2022/11/22 01:21:47;;;;;;;10.60;1.10;;;;;;;15.02;100.00;101096.28;2099323;28;20040;-75
2022/11/22 01:23:08;;;;;;;5.30;1.08;;;;;;;15.04;100.00;101098.91;2088499;28;20093;-75
2022/11/22 01:24:30;;;;;;;7.60;1.20;;;;;;;15.04;100.00;101102.47;2091703;28;20052;-75
2022/11/22 01:25:52;;;;;;;4.80;0.93;;;;;;;15.04;100.00;101105.13;2096334;28;20453;-75
2022/11/22 01:27:14;;;;;;;11.07;1.58;;;;;;;15.03;100.00;101103.34;2110199;28;20485;-75
2022/11/22 01:28:37;;;;;;;7.72;1.50;;;;;;;15.07;100.00;101101.59;2094034;28;20126;-75
2022/11/22 01:29:59;;;;;;;5.18;1.10;;;;;;;15.09;100.00;101106.06;2099524;28;20096;-74
2022/11/22 01:31:22;;;;;;;9.00;1.85;;;;;;;15.11;100.00;101117.56;2093889;28;20044;-74
2022/11/22 01:32:43;;;;;;;5.63;1.05;;;;;;;15.11;100.00;101122.00;2106165;28;20628;-75
2022/11/22 01:34:07;;;;;;;6.07;1.30;;;;;;;15.10;100.00;101120.22;2103680;28;20439;-74
2022/11/22 01:35:30;;;;;;;7.50;1.27;;;;;;;15.10;100.00;101123.75;2102595;28;20113;-74
2022/11/22 01:36:51;;;;;;;5.18;1.30;;;;;;;15.09;100.00;101115.81;2088378;28;20460;-75
2022/11/22 01:38:13;;;;;;;4.78;1.00;;;;;;;15.07;100.00;101122.88;2095674;28;20036;-75
2022/11/22 01:39:36;;;;;;;6.60;1.17;;;;;;;15.05;100.00;101117.53;2094171;28;20052;-75
2022/11/22 01:40:57;;;;;;;5.18;1.00;;;;;;;15.03;100.00;101129.09;2087781;28;20455;-74
2022/11/22 01:42:20;;;;;;;9.38;1.85;;;;;;;15.02;100.00;101124.63;2102131;28;20047;-74
2022/11/22 01:43:42;;;;;;;6.88;0.90;;;;;;;15.01;100.00;101125.53;2096680;28;20048;-74
2022/11/22 01:45:41;;;;;;;10.45;1.38;;;;;;;14.99;100.00;101125.50;2107643;28;20067;-74
2022/11/22 01:47:10;;;;;;;6.28;1.45;;;;;;;14.96;100.00;101124.63;2095988;28;20532;-75
2022/11/22 01:48:40;;;;;;;8.73;1.60;;;;;;;14.95;100.00;101118.41;2094609;28;20531;-75
2022/11/22 01:50:07;;;;;;;5.13;1.45;;;;;;;14.95;100.00;101125.50;2101880;28;20044;-75
2022/11/22 01:51:36;;;;;;;10.38;1.85;;;;;;;14.93;100.00;101128.16;2093997;28;20048;-75
2022/11/22 01:53:01;;;;;;;8.60;1.70;;;;;;;14.91;100.00;101121.03;2092795;28;20110;-75
2022/11/22 01:54:29;;;;;;;6.82;1.17;;;;;;;14.87;100.00;101116.59;2099600;28;20149;-75
2022/11/22 01:55:51;;;;;;;7.97;1.35;;;;;;;14.84;100.00;101121.91;2103091;28;20574;-74
2022/11/22 01:57:20;;;;;;;7.80;1.20;;;;;;;14.81;100.00;101120.13;2088047;28;20048;-75
2022/11/22 01:58:45;;;;;;;7.50;1.10;;;;;;;14.77;100.00;101116.56;2101388;28;20466;-74
2022/11/22 02:00:11;;;;;;;3.97;1.00;;;;;;;14.77;100.00;101112.16;2096503;28;20056;-75
2022/11/22 02:01:40;;;;;;;7.78;1.77;;;;;;;14.72;100.00;101109.44;2094962;28;20041;-74
2022/11/22 02:03:06;;;;;;;7.07;1.08;;;;;;;14.69;100.00;101109.47;2098065;28;20110;-74
2022/11/22 02:04:32;;;;;;;6.45;0.90;;;;;;;14.66;100.00;101109.41;2102734;28;20492;-75
2022/11/22 02:05:56;;;;;;;4.53;0.70;;;;;;;14.64;100.00;101116.50;2111098;28;20138;-75
2022/11/22 02:07:24;;;;;;;6.57;1.10;;;;;;;14.64;100.00;101122.69;2110772;28;20052;-75
2022/11/22 02:08:54;;;;;;;8.32;1.58;;;;;;;14.64;100.00;101120.03;2102686;28;20139;-74
2022/11/22 02:10:17;;;;;;;10.00;1.50;;;;;;;14.64;100.00;101127.13;2108305;28;20043;-74
2022/11/22 02:11:46;;;;;;;7.10;1.52;;;;;;;14.63;100.00;101120.94;2113216;28;20105;-74
2022/11/22 02:13:10;;;;;;;8.48;1.20;;;;;;;14.63;100.00;101125.38;2111558;28;20492;-75
2022/11/22 02:14:35;;;;;;;9.30;1.33;;;;;;;14.61;100.00;101127.13;2110744;28;20134;-74
2022/11/22 02:15:57;;;;;;;5.30;0.88;;;;;;;14.61;100.00;101124.47;2102044;28;20052;-75
2022/11/22 02:17:19;;;;;;;4.90;1.10;;;;;;;14.61;100.00;101135.09;2091585;28;20044;-74
2022/11/22 02:18:41;;;;;;;8.88;1.23;;;;;;;14.59;100.00;101134.19;2085480;28;20447;-74
2022/11/22 02:20:04;;;;;;;9.55;1.33;;;;;;;14.58;100.00;101132.41;2083590;28;20601;-75
2022/11/22 02:21:27;;;;;;;9.20;1.33;;;;;;;14.57;100.00;101123.53;2090653;28;20059;-75
2022/11/22 02:22:55;;;;;;;9.43;1.63;;;;;;;14.59;100.00;101126.22;2098698;28;20047;-74
2022/11/22 02:24:23;;;;;;;8.73;0.93;;;;;;;14.59;100.00;101128.88;2087749;28;20440;-74
2022/11/22 02:26:01;;;;;;;10.70;1.55;;;;;;;14.58;100.00;101135.06;2093442;28;20310;-74
2022/11/22 02:27:24;;;;;;;6.95;1.20;;;;;;;14.57;100.00;101139.47;2087634;28;20055;-75
2022/11/22 02:28:47;;;;;;;4.90;0.98;;;;;;;14.57;100.00;101133.31;2099631;28;20543;-74
2022/11/22 02:30:10;;;;;;;8.02;1.38;;;;;;;14.58;100.00;101145.69;2098737;28;20081;-74
2022/11/22 02:31:37;;;;;;;7.30;1.13;;;;;;;14.56;100.00;101140.41;2095535;28;20086;-75
2022/11/22 02:33:00;;;;;;;6.35;1.27;;;;;;;14.55;100.00;101146.59;2095360;28;20052;-75
2022/11/22 02:34:22;;;;;;;8.85;1.15;;;;;;;14.52;100.00;101149.22;2104743;28;20095;-75
2022/11/22 02:35:45;;;;;;;7.30;0.70;;;;;;;14.49;100.00;101146.56;2104843;28;20160;-74
2022/11/22 02:37:07;;;;;;;7.13;1.10;;;;;;;14.48;100.00;101136.81;2098700;28;20044;-75
2022/11/22 02:38:34;;;;;;;6.78;1.27;;;;;;;14.47;100.00;101137.69;2100823;28;20118;-75
2022/11/22 02:40:00;;;;;;;5.68;1.08;;;;;;;14.42;100.00;101131.47;2108960;28;20043;-74
2022/11/22 02:41:24;;;;;;;3.42;0.80;;;;;;;14.38;100.00;101139.38;2095800;28;20064;-75
2022/11/22 02:42:50;;;;;;;6.97;1.10;;;;;;;14.36;100.00;101139.34;2109570;28;20106;-74
2022/11/22 02:44:12;;;;;;;6.57;1.65;;;;;;;14.33;100.00;101142.88;2106248;28;20073;-74
2022/11/22 02:45:36;;;;;;;6.10;1.02;;;;;;;14.32;100.00;101151.72;2104035;28;20469;-74
2022/11/22 02:46:58;;;;;;;7.43;1.48;;;;;;;14.31;100.00;101151.69;2081322;28;20106;-74
2022/11/22 02:48:19;;;;;;;4.65;0.90;;;;;;;14.31;100.00;101149.94;2090320;28;20396;-74
2022/11/22 02:49:42;;;;;;;7.15;1.10;;;;;;;14.31;100.00;101152.56;2086752;28;20400;-74
2022/11/22 02:51:04;;;;;;;10.30;1.50;;;;;;;14.30;100.00;101150.84;2095058;28;20627;-74
2022/11/22 02:52:26;;;;;;;6.65;1.08;;;;;;;14.30;100.00;101156.16;2103503;28;20077;-74
2022/11/22 02:53:49;;;;;;;9.05;0.88;;;;;;;14.29;100.00;101156.13;2103211;28;20052;-74
2022/11/22 02:55:12;;;;;;;3.85;1.20;;;;;;;14.28;100.00;101157.00;2097841;28;20070;-75
2022/11/22 02:56:36;;;;;;;7.70;1.73;;;;;;;14.27;100.00;101160.53;2109279;28;20088;-74
2022/11/22 02:57:58;;;;;;;5.25;1.00;;;;;;;14.25;100.00;101156.97;2111656;28;20043;-74
2022/11/22 02:59:21;;;;;;;5.30;1.40;;;;;;;14.23;100.00;101159.63;2097890;28;20081;-74
2022/11/22 03:00:43;;;;;;;4.93;1.33;;;;;;;14.23;100.00;101161.41;2109490;28;20043;-75
2022/11/22 03:02:05;;;;;;;6.07;1.10;;;;;;;14.21;100.00;101164.03;2103347;28;20055;-74
2022/11/22 03:03:27;;;;;;;5.20;1.23;;;;;;;14.21;100.00;101156.06;2111768;28;20130;-74
2022/11/22 03:04:49;;;;;;;9.70;1.48;;;;;;;14.19;100.00;101160.47;2097706;28;20051;-74
2022/11/22 03:06:12;;;;;;;7.00;1.00;;;;;;;14.19;100.00;101162.22;2109005;28;20484;-74
2022/11/22 03:07:33;;;;;;;5.63;1.08;;;;;;;14.17;100.00;101156.94;2111948;28;20133;-74
2022/11/22 03:08:56;;;;;;;6.43;1.30;;;;;;;14.16;100.00;101160.47;2097504;28;20504;-74
2022/11/22 03:10:18;;;;;;;7.32;1.23;;;;;;;14.16;100.00;101159.56;2086718;28;20056;-74
2022/11/22 03:11:42;;;;;;;5.90;0.93;;;;;;;14.15;100.00;101163.09;2092562;28;20101;-74
2022/11/22 03:13:05;;;;;;;4.85;1.30;;;;;;;14.14;100.00;101166.63;2086953;28;20159;-74
2022/11/22 03:14:26;;;;;;;9.35;1.40;;;;;;;14.11;100.00;101158.66;2083994;28;20442;-74
2022/11/22 03:15:49;;;;;;;6.72;1.55;;;;;;;14.10;100.00;101159.53;2092546;28;20674;-74
2022/11/22 03:17:13;;;;;;;6.28;1.23;;;;;;;14.06;100.00;101161.25;2102741;28;20090;-75
2022/11/22 03:18:34;;;;;;;5.20;1.33;;;;;;;14.04;100.00;101151.53;2103071;28;20051;-74
2022/11/22 03:19:57;;;;;;;5.75;1.65;;;;;;;14.02;100.00;101159.47;2103335;28;20044;-75
2022/11/22 03:21:19;;;;;;;5.93;1.40;;;;;;;14.00;100.00;101157.66;2103141;28;20073;-74
2022/11/22 03:22:41;;;;;;;11.00;1.42;;;;;;;13.98;100.00;101157.66;2103134;28;20055;-74
2022/11/22 03:24:03;;;;;;;6.78;1.25;;;;;;;13.97;100.00;101169.16;2097430;28;20143;-74
2022/11/22 03:25:25;;;;;;;;;;;;;;;13.90;100.00;101167.34;2097899;28;20052;-74
2022/11/22 03:26:50;;;;;;;5.28;1.25;;;;;;;13.90;100.00;101170.00;2100519;28;20371;-74
2022/11/22 03:28:11;;;;;;;5.28;1.05;;;;;;;13.94;100.00;101163.81;2101139;28;20032;-74
2022/11/22 03:29:34;;;;;;;4.53;1.10;;;;;;;13.98;100.00;101169.16;2094525;28;20131;-74
2022/11/22 03:30:57;;;;;;;7.85;1.73;;;;;;;14.00;100.00;101171.81;2086741;28;20122;-75
2022/11/22 03:32:19;;;;;;;4.43;0.90;;;;;;;13.96;100.00;101178.00;2092470;28;20052;-75
2022/11/22 03:33:41;;;;;;;7.07;1.27;;;;;;;13.83;100.00;101168.16;2102929;28;20054;-73
2022/11/22 03:35:04;;;;;;;9.77;1.60;;;;;;;13.79;100.00;101177.84;2100292;28;20056;-74
2022/11/22 03:36:25;;;;;;;6.80;1.30;;;;;;;13.81;100.00;101177.84;2086597;28;20040;-74
2022/11/22 03:37:48;;;;;;;5.57;1.20;;;;;;;13.82;100.00;101180.53;2101381;28;20044;-74
2022/11/22 03:39:10;;;;;;;3.42;1.40;;;;;;;13.82;100.00;101176.97;2108654;28;20495;-74
2022/11/22 03:40:33;;;;;;;5.63;1.42;;;;;;;13.83;100.00;101184.06;2103287;28;20511;-74
2022/11/22 03:41:57;;;;;;;7.38;1.10;;;;;;;13.81;100.00;101181.41;2100003;28;20142;-75
2022/11/22 03:43:20;;;;;;;8.18;1.67;;;;;;;13.83;100.00;101176.13;2103360;28;20078;-74
2022/11/22 03:44:41;;;;;;;7.38;1.30;;;;;;;13.83;100.00;101178.78;2097293;28;20090;-74
2022/11/22 03:46:04;;;;;;;3.65;1.30;;;;;;;13.83;100.00;101192.03;2097217;28;20479;-74
2022/11/22 03:47:25;;;;;;;5.88;1.33;;;;;;;13.83;100.00;101190.28;2094965;28;20041;-74
2022/11/22 03:48:48;;;;;;;5.70;1.25;;;;;;;13.87;100.00;101194.72;2086447;28;20103;-75
2022/11/22 03:50:09;;;;;;;8.90;1.70;;;;;;;13.88;100.00;101190.31;2094194;28;20114;-74
2022/11/22 03:51:32;;;;;;;6.90;1.42;;;;;;;13.89;100.00;101194.75;2086601;28;20037;-74
2022/11/22 03:52:54;;;;;;;5.40;1.38;;;;;;;13.86;100.00;101200.91;2092193;28;20134;-74
2022/11/22 03:54:17;;;;;;;6.28;1.50;;;;;;;13.81;100.00;101191.13;2102450;28;20595;-74
2022/11/22 03:55:39;;;;;;;4.53;1.20;;;;;;;13.77;100.00;101195.53;2097417;28;20095;-74
2022/11/22 03:57:03;;;;;;;3.33;1.15;;;;;;;13.72;100.00;101191.91;2097375;28;20694;-74
2022/11/22 03:58:24;;;;;;;6.72;1.40;;;;;;;13.70;100.00;101195.44;2086425;28;20105;-74
2022/11/22 03:59:46;;;;;;;5.20;1.30;;;;;;;13.62;100.00;101194.47;2092040;28;20055;-75
2022/11/22 04:01:08;;;;;;;5.03;1.40;;;;;;;13.56;100.00;101190.91;2088765;28;20048;-74
2022/11/22 04:02:30;;;;;;;5.50;1.35;;;;;;;13.53;100.00;101198.81;2091854;28;20061;-74
2022/11/22 04:03:51;;;;;;;7.75;1.30;;;;;;;13.54;100.00;101207.66;2094529;28;20073;-74
2022/11/22 04:05:14;;;;;;;7.00;1.23;;;;;;;13.55;100.00;101212.09;2110204;28;20039;-75
2022/11/22 04:06:35;;;;;;;4.60;1.40;;;;;;;13.59;100.00;101213.03;2097229;28;20447;-75
2022/11/22 04:07:58;;;;;;;5.82;1.58;;;;;;;13.62;100.00;101224.56;2094350;28;20056;-75
2022/11/22 04:09:20;;;;;;;4.65;1.10;;;;;;;13.63;100.00;101220.13;2092111;28;20052;-74
2022/11/22 04:10:43;;;;;;;5.45;1.73;;;;;;;13.63;100.00;101223.69;2105359;28;20055;-75
2022/11/22 04:12:06;;;;;;;3.78;1.10;;;;;;;13.63;100.00;101222.78;2103041;28;20045;-74
2022/11/22 04:15:07;;;;;;;4.93;1.42;;;;;;;13.57;100.00;101229.81;2113773;28;20040;-74
2022/11/22 04:16:29;;;;;;;4.50;1.20;;;;;;;13.54;100.00;101216.50;2109852;28;20427;-75
2022/11/22 04:17:51;;;;;;;4.95;1.30;;;;;;;13.53;100.00;101221.78;2097238;28;20133;-75
2022/11/22 04:19:12;;;;;;;6.47;1.65;;;;;;;13.54;100.00;101223.56;2094340;28;20052;-74
2022/11/22 04:22:14;;;;;;;5.18;1.25;;;;;;;13.51;100.00;101229.75;2107323;28;20051;-74
2022/11/22 04:23:35;;;;;;;5.28;1.45;;;;;;;13.53;100.00;101235.06;2104896;28;20096;-74
2022/11/22 04:25:16;;;;;;;6.75;1.70;;;;;;;13.52;100.00;101238.59;2102899;28;20459;-74
2022/11/22 04:26:37;;;;;;;4.68;1.25;;;;;;;13.50;100.00;101232.38;2113446;28;20095;-75
2022/11/22 04:28:02;;;;;;;5.00;1.83;;;;;;;13.50;100.00;101243.88;2111037;28;20055;-75
2022/11/22 04:29:24;;;;;;;6.60;1.73;;;;;;;13.47;100.00;101254.44;2103016;28;20061;-75
2022/11/22 04:34:06;;;;;;;7.05;1.60;;;;;;;13.39;100.00;101237.53;2091302;28;20568;-75
2022/11/22 04:35:28;;;;;;;9.93;1.60;;;;;;;13.41;100.00;101240.22;2102870;28;20101;-74
2022/11/22 04:36:49;;;;;;;7.22;1.70;;;;;;;13.42;100.00;101248.19;2102712;28;20137;-74
2022/11/22 04:38:12;;;;;;;5.85;1.55;;;;;;;13.41;100.00;101243.75;2102557;28;20060;-75
2022/11/22 04:39:34;;;;;;;6.65;1.50;;;;;;;13.41;100.00;101237.56;2102875;28;20138;-75
2022/11/22 04:40:56;;;;;;;6.18;2.20;;;;;;;13.38;100.00;101249.06;2102897;28;20055;-75
2022/11/22 04:45:40;;;;;;;6.10;1.60;;;;;;;13.33;100.00;101247.19;2097180;28;20206;-75
2022/11/22 04:47:01;;;;;;;6.15;1.60;;;;;;;13.32;100.00;101246.31;2086115;28;20503;-75
2022/11/22 04:48:24;;;;;;;8.13;1.80;;;;;;;13.30;100.00;101248.06;2099778;28;20056;-75
2022/11/22 04:49:45;;;;;;;7.65;2.08;;;;;;;13.29;100.00;101255.97;2088418;28;20048;-75
2022/11/22 04:52:54;;;;;;;4.43;1.90;;;;;;;13.27;100.00;101260.38;2108403;28;20149;-75
2022/11/22 04:54:17;;;;;;;4.63;1.98;;;;;;;13.28;100.00;101259.50;2103412;28;20052;-75
2022/11/22 04:55:39;;;;;;;3.88;1.65;;;;;;;13.27;100.00;101261.25;2100063;28;20048;-75
2022/11/22 04:57:02;;;;;;;7.97;2.20;;;;;;;13.28;100.00;101262.16;2107940;28;20046;-75
2022/11/22 04:58:24;;;;;;;4.40;1.95;;;;;;;13.27;100.00;101261.25;2102480;28;20043;-74
2022/11/22 04:59:48;;;;;;;5.30;1.75;;;;;;;13.27;100.00;101263.03;2102782;28;20060;-74
2022/11/22 05:01:11;;;;;;;3.78;1.90;;;;;;;13.25;100.00;101281.59;2091701;28;20098;-75
2022/11/22 05:02:32;;;;;;;7.57;2.40;;;;;;;13.26;100.00;101279.84;2094286;28;20151;-75
2022/11/22 05:03:55;;;;;;;4.28;1.73;;;;;;;13.25;100.00;101273.63;2085487;28;20045;-74
2022/11/22 05:05:16;;;;;;;7.75;2.25;;;;;;;13.26;100.00;101285.13;2098043;28;20396;-75
2022/11/22 05:06:38;;;;;;;7.38;2.40;;;;;;;13.26;100.00;101283.34;2103328;28;20047;-75
2022/11/22 05:08:01;;;;;;;8.18;2.30;;;;;;;13.28;100.00;101278.97;2108328;28;20135;-75
2022/11/22 05:09:22;;;;;;;4.63;2.28;;;;;;;13.33;100.00;101279.00;2110753;28;20382;-74
2022/11/22 05:10:56;;;;;;;5.22;2.00;;;;;;;13.38;100.00;101285.28;2102231;28;20056;-75
2022/11/22 05:12:19;;;;;;;4.90;1.80;;;;;;;13.44;100.00;101282.72;2111490;28;20433;-74
2022/11/22 05:13:43;;;;;;;5.82;1.77;;;;;;;13.50;100.00;101270.41;2110842;28;20054;-74
2022/11/22 05:15:07;;;;;;;8.93;2.00;;;;;;;13.55;100.00;101284.59;2100961;28;20558;-75
2022/11/22 05:16:29;;;;;;;6.90;2.08;;;;;;;13.59;100.00;101279.34;2100462;28;20443;-75
2022/11/22 05:17:51;;;;;;;7.07;2.13;;;;;;;13.63;100.00;101289.13;2096472;28;20056;-75
2022/11/22 05:19:14;;;;;;;10.38;2.88;;;;;;;13.66;100.00;101295.31;2091343;28;20056;-75
2022/11/22 05:20:35;;;;;;;9.00;3.20;;;;;;;13.66;100.00;101295.31;2108113;28;20397;-75
2022/11/22 05:21:58;;;;;;;8.93;3.38;;;;;;;13.66;100.00;101302.41;2105012;28;20062;-74
2022/11/22 05:24:59;;;;;;;8.98;2.70;;;;;;;13.64;100.00;101298.84;2091041;28;20085;-75
2022/11/22 05:26:22;;;;;;;7.13;2.95;;;;;;;13.63;100.00;101299.72;2107858;28;20040;-75
2022/11/22 05:27:44;;;;;;;8.27;2.58;;;;;;;13.62;100.00;101303.25;2102689;28;20052;-74
2022/11/22 05:29:08;;;;;;;10.65;2.85;;;;;;;13.60;100.00;101303.22;2102215;28;20039;-74
2022/11/22 05:30:30;;;;;;;7.18;3.72;;;;;;;13.58;100.00;101299.69;2102344;28;20079;-74
2022/11/22 05:31:53;;;;;;;9.77;3.67;;;;;;;13.55;100.00;101300.53;2102268;28;20097;-75
2022/11/22 05:33:14;;;;;;;10.63;5.20;;;;;;;13.57;100.00;101300.53;2094086;28;20115;-74
2022/11/22 05:34:36;;;;;;;15.18;12.43;;;;;;;13.61;100.00;101306.75;2102074;28;20113;-75
2022/11/22 05:35:59;;;;;;;28.90;26.00;;;;;;;13.65;100.00;101312.16;2094128;28;20040;-74
2022/11/22 05:37:21;;;;;;;32.92;29.52;;;;;;;13.69;100.00;101313.06;2094109;28;20056;-74
2022/11/22 05:38:44;;;;;;;34.25;30.77;;;;;;;13.73;100.00;101314.88;2093321;28;20157;-74
2022/11/22 05:40:07;;;;;;;26.23;23.45;;;;;;;13.77;100.00;101314.03;2102374;28;20132;-74
2022/11/22 05:41:30;;;;;;;21.80;19.17;;;;;;;13.80;100.00;101307.00;2088455;28;20087;-75
2022/11/22 05:42:51;;;;;;;16.77;10.23;;;;;;;13.82;100.00;101304.38;2091352;28;20534;-74
2022/11/22 05:44:14;;;;;;;19.25;10.75;;;;;;;13.82;100.00;101310.56;2093878;28;20067;-74
2022/11/22 05:45:38;;;;;;;14.40;10.90;;;;;;;13.82;100.00;101307.03;2102627;28;20052;-74
2022/11/22 05:47:00;;;;;;;20.25;14.65;;;;;;;13.80;100.00;101314.06;2093751;28;20054;-74
2022/11/22 05:48:22;;;;;;;24.70;19.33;;;;;;;13.79;100.00;101312.28;2108020;28;20104;-75
2022/11/22 05:49:45;;;;;;;21.65;17.27;;;;;;;13.81;100.00;101311.44;2105014;28;20056;-75
2022/11/22 05:51:06;;;;;;;23.50;20.38;;;;;;;13.95;100.00;101311.59;2099650;28;20060;-74
2022/11/22 05:52:29;;;;;;;;;;;;;;;14.06;100.00;101315.22;2108581;28;20162;-75
2022/11/22 05:53:51;;;;;;;24.10;19.95;;;;;;;14.26;100.00;101313.66;2099198;28;19928;-74
2022/11/22 05:55:13;;;;;;;22.88;19.75;;;;;;;14.48;100.00;101317.44;2093869;28;20446;-75
2022/11/22 05:56:35;;;;;;;21.75;17.27;;;;;;;14.69;100.00;101316.75;2101847;28;20131;-75
2022/11/22 05:58:00;;;;;;;18.70;15.27;;;;;;;14.91;100.00;101316.00;2102170;28;20527;-75
2022/11/22 05:59:21;;;;;;;12.45;10.07;;;;;;;15.08;100.00;101314.34;2104908;28;20036;-74
2022/11/22 06:00:45;;;;;;;13.13;6.50;;;;;;;15.24;100.00;101311.75;2096605;28;20107;-74
2022/11/22 06:02:07;;;;;;;9.45;5.55;;;;;;;15.35;100.00;101315.38;2108210;28;20044;-75
2022/11/22 06:03:29;;;;;;;8.43;5.85;;;;;;;15.46;100.00;101321.63;2096533;28;20635;-75
2022/11/22 06:04:51;;;;;;;9.48;5.68;;;;;;;15.60;100.00;101316.41;2093616;28;20105;-74
2022/11/22 06:06:14;;;;;;;11.70;7.03;;;;;;;15.75;100.00;101312.00;2090007;28;20117;-74
2022/11/22 06:07:36;;;;;;;9.88;7.03;;;;;;;15.89;100.00;101312.06;2091185;28;20044;-75
2022/11/22 06:08:59;;;;;;;9.32;7.47;;;;;;;16.02;100.00;101311.19;2102029;28;20063;-75
2022/11/22 06:10:21;;;;;;;9.40;8.07;;;;;;;16.16;100.00;101312.13;2088030;28;20044;-75
2022/11/22 06:11:44;;;;;;;12.93;7.55;;;;;;;16.31;100.00;101306.81;2099682;28;20098;-75
2022/11/22 06:13:06;;;;;;;11.40;7.57;;;;;;;16.48;100.00;101317.47;2093916;28;20053;-74
2022/11/22 06:14:29;;;;;;;17.77;9.35;;;;;;;16.65;100.00;101307.75;2102290;28;20068;-75
2022/11/22 06:15:52;;;;;;;13.18;7.90;;;;;;;16.83;100.00;101312.16;2091702;28;20114;-74
2022/11/22 06:17:15;;;;;;;9.93;6.00;;;;;;;16.97;100.00;101321.03;2099712;28;20047;-75
2022/11/22 06:18:37;;;;;;;9.30;5.50;;;;;;;17.13;100.00;101319.25;2092434;28;20044;-74
2022/11/22 06:20:00;;;;;;;8.50;5.53;;;;;;;17.29;100.00;101323.63;2104402;28;20106;-75
2022/11/22 06:21:27;;;;;;;7.78;4.47;;;;;;;17.42;100.00;101314.69;2093425;28;20166;-75
2022/11/22 06:22:49;;;;;;;6.32;4.03;;;;;;;17.58;100.00;101323.56;2095140;28;20052;-74
2022/11/22 06:24:12;;;;;;;6.93;3.33;;;;;;;17.70;100.00;101320.84;2085564;28;20496;-75
2022/11/22 06:25:34;;;;;;;4.70;2.78;;;;;;;17.81;100.00;101324.34;2088072;28;20049;-74
2022/11/22 06:26:55;;;;;;;4.93;1.98;;;;;;;17.90;100.00;101318.97;2089451;28;20852;-75
2022/11/22 06:28:18;;;;;;;8.00;3.58;;;;;;;18.00;100.00;101324.25;2099099;28;20048;-74
2022/11/22 06:29:41;;;;;;;8.07;4.90;;;;;;;18.09;100.00;101330.44;2094629;28;20443;-75
2022/11/22 06:31:07;;;;;;;10.90;7.00;;;;;;;18.18;100.00;101338.38;2101019;28;20056;-75
2022/11/22 06:32:33;;;;;;;12.27;7.28;;;;;;;18.28;100.00;101329.41;2106010;28;20062;-74
2022/11/22 06:33:58;;;;;;;9.00;6.65;;;;;;;18.40;100.00;101331.09;2102430;28;20048;-75
2022/11/22 06:35:20;;;;;;;10.52;7.22;;;;;;;18.50;100.00;101329.28;2104281;28;20072;-75
2022/11/22 06:36:42;;;;;;;9.43;6.93;;;;;;;18.65;100.00;101334.50;2091208;28;20052;-75
2022/11/22 06:38:04;;;;;;;8.00;6.00;;;;;;;18.79;100.00;101335.28;2101945;28;20075;-75
2022/11/22 06:39:27;;;;;;;10.00;6.88;;;;;;;18.89;100.00;101334.31;2103357;28;20435;-75
2022/11/22 06:40:49;;;;;;;7.97;5.25;;;;;;;19.02;100.00;101335.06;2096430;28;20076;-75
2022/11/22 06:42:11;;;;;;;7.43;3.40;;;;;;;19.15;100.00;101335.84;2102150;28;20041;-75
2022/11/22 06:43:34;;;;;;;5.85;3.08;;;;;;;19.26;100.00;101336.59;2104587;28;20754;-75
2022/11/22 06:44:56;;;;;;;6.93;2.30;;;;;;;19.34;99.18;101335.63;2092672;28;20489;-75
2022/11/22 06:46:22;;;;;;;3.67;1.83;;;;;;;19.43;96.93;101335.50;2098146;28;20043;-75
2022/11/22 06:47:43;;;;;;;6.20;1.48;;;;;;;19.55;95.71;101339.00;2103787;28;20056;-76
2022/11/22 06:49:06;;;;;;;3.53;1.27;;;;;;;19.63;95.10;101339.75;2101941;28;20102;-75
2022/11/22 06:50:29;;;;;;;3.60;1.83;;;;;;;19.70;94.01;101342.34;2093403;28;20148;-76
2022/11/22 06:51:51;;;;;;;5.60;2.40;;;;;;;19.81;93.05;101342.25;2099390;28;20105;-75